Terminal Aerodrome Forecast
Issued by NWS

Home | Current Version | Previous Version | Text Only | Print | Product List | Glossary On
Versions: 1 2 3 4 5 6 7 8 9 10 11 12
551
FTUS45 KRIW 100531
TAFCOD
TAF
KCOD 100531Z 1006/1106 VRB05KT P6SM VCSH SCT030 BKN045
     FM101700 25011G20KT P6SM SCT040 BKN060
     FM110000 36011KT P6SM VCSH BKN035
      AMD LTD TO CLD VIS AND WIND=

USA.gov is the U.S. government's official web portal to all federal, state and local government web resources and services.